Latest Weather Observations for Mandora

IDW60801

Issued at 11:33 pm WST Monday 20 February 2017 (issued every 30 minutes, with the page automatically refreshed every 10 minutes)

About weather observations | Map of weather stations | Latest weather observations for WA | Other Formats
Station Details ID: 004019 Name: MANDORA Lat: -19.74 Lon: 120.84 Height: 7.5 m
Data from the previous 72 hours. | See also: Recent months at Mandora
Date/Time
WST
Temp
°C
App
Temp
°C
Dew
Point
°C
Rel
Hum
%
Delta-T
°C
Wind Press
QNH
hPa
Press
MSL
hPa
Rain since
9am
mm
Dir  Spd
km/h
Gust
km/h
Spd
kts
Gust
kts
20/11:30pm 27.8 33.2 26.0 90 1.3 N 9 13 5 7 1009.4 1009.3 0.0
20/11:00pm 27.6 32.5 25.2 87 1.7 ENE 9 11 5 6 1009.3 1009.2 0.0
20/10:30pm 27.7 32.9 25.7 89 1.4 E 9 15 5 8 1009.6 1009.5 0.0
20/10:00pm 27.3 32.5 25.1 88 1.5 N 7 9 4 5 1008.9 1008.8 0.0
20/09:30pm 27.0 31.3 24.3 85 1.9 N 9 13 5 7 1008.6 1008.5 0.0
20/09:00pm 26.9 31.5 24.2 85 1.9 N 7 11 4 6 1008.6 1008.5 0.0
20/08:30pm 27.3 32.4 24.0 82 2.3 NNW 4 9 2 5 1008.5 1008.4 0.0
20/08:00pm 27.5 31.8 23.7 80 2.6 NNE 7 9 4 5 1008.4 1008.3 0.0
20/07:30pm 27.7 31.9 23.5 78 2.9 NNE 7 9 4 5 1007.9 1007.8 0.0
20/07:00pm 28.4 32.1 23.3 74 3.5 N 9 13 5 7 1007.2 1007.1 0.0
20/06:30pm 29.4 32.9 22.9 68 4.4 NNW 9 11 5 6 1006.5 1006.4 0.0
20/06:00pm 30.8 33.4 21.9 59 6.0 WNW 11 17 6 9 1005.8 1005.7 0.0
20/05:30pm 31.8 33.3 21.3 53 7.1 NW 15 22 8 12 1006.0 1005.9 0.0
20/05:00pm 32.6 34.0 21.1 50 7.8 NW 15 20 8 11 1005.5 1005.4 0.0
20/04:30pm 33.3 34.6 20.8 48 8.4 NW 15 24 8 13 1005.0 1004.9 0.0
20/04:00pm 33.8 34.6 19.8 43 9.3 NNW 15 22 8 12 1005.1 1005.0 0.0
20/03:30pm 34.6 34.8 19.4 40 10.0 NNW 17 24 9 13 1005.2 1005.1 0.0
20/03:00pm 34.8 34.5 19.2 39 10.3 NNW 19 26 10 14 1005.3 1005.2 0.0
20/02:30pm 34.9 34.3 18.9 39 10.5 NNW 20 28 11 15 1005.4 1005.3 0.0
20/02:00pm 36.4 36.6 19.4 37 11.3 NNW 17 22 9 12 1005.5 1005.4 0.0
20/01:30pm 37.3 38.2 19.3 35 12.0 NNW 13 20 7 11 1005.6 1005.5 0.0
20/01:00pm 36.9 37.2 18.0 33 12.4 N 13 20 7 11 1006.0 1005.9 0.0
20/12:30pm 38.2 38.1 15.9 26 14.2 NE 11 17 6 9 1006.4 1006.3 0.0
20/12:00pm 37.9 38.6 16.2 27 13.9 NE 7 13 4 7 1006.8 1006.7 0.0
20/11:30am 36.9 37.0 15.4 28 13.5 NNE 9 13 5 7 1007.3 1007.2 0.0
20/11:00am 35.8 35.5 13.3 26 13.7 NE 7 13 4 7 1007.7 1007.6 0.0
20/10:30am 35.3 34.7 14.6 29 12.8 NNE 11 17 6 9 1008.1 1008.0 0.0
20/10:00am 35.8 35.3 13.9 27 13.5 E 9 15 5 8 1008.4 1008.3 0.0
20/09:30am 34.5 33.7 12.8 27 13.1 E 9 15 5 8 1008.6 1008.5 0.0
20/09:00am 33.2 32.5 14.3 32 11.6 E 11 20 6 11 1008.8 1008.7 0.0
20/08:30am 31.3 30.8 14.9 37 10.1 E 11 17 6 9 1009.1 1009.0 0.0
20/08:00am 28.8 29.0 15.7 45 8.1 ESE 9 15 5 8 1009.0 1008.9 0.0
20/07:30am 26.3 26.0 15.4 51 6.6 ESE 11 17 6 9 1008.8 1008.7 0.0
20/07:00am 23.5 24.6 16.5 65 4.3 ESE 6 9 3 5 1008.8 1008.7 0.0
20/06:30am 21.5 22.4 16.7 74 2.9 ESE 7 9 4 5 1008.6 1008.5 0.0
20/06:00am 20.7 21.6 16.5 77 2.5 ESE 7 11 4 6 1008.5 1008.4 0.0
20/05:30am 21.0 21.4 16.4 75 2.8 E 9 13 5 7 1008.3 1008.2 0.0
20/05:00am 21.1 21.8 17.1 78 2.4 ENE 9 11 5 6 1008.3 1008.2 0.0
20/04:30am 21.2 22.2 16.8 76 2.7 ESE 7 11 4 6 1008.1 1008.0 0.0
20/04:00am 21.1 21.9 17.3 79 2.3 SE 9 11 5 6 1007.8 1007.7 0.0
20/03:30am 21.5 23.1 18.3 82 2.0 ESE 7 9 4 5 1007.7 1007.6 0.0
20/03:00am 21.4 23.6 19.1 87 1.5 SSE 6 7 3 4 1007.6 1007.5 0.0
20/02:30am 22.0 24.1 19.4 85 1.7 SW 7 11 4 6 1007.5 1007.4 0.0
20/02:00am 22.4 25.6 19.8 85 1.7 E 2 6 1 3 1007.6 1007.5 0.0
20/01:30am 23.6 26.5 21.7 89 1.3 S 9 11 5 6 1007.6 1007.5 0.0
20/01:00am 25.3 30.0 24.3 94 0.7 SSW 7 9 4 5 1007.7 1007.6 0.0
20/12:30am 25.5 30.4 24.3 93 0.8 SW 6 6 3 3 1008.0 1007.9 0.0
20/12:00am 26.4 31.7 25.2 93 0.8 SW 7 9 4 5 1008.3 1008.2 0.0
 
Date/Time
WST
Temp
°C
App
Temp
°C
Dew
Point
°C
Rel
Hum
%
Delta-T
°C
Wind Press
QNH
hPa
Press
MSL
hPa
Rain since
9am
mm
Dir  Spd
km/h
Gust
km/h
Spd
kts
Gust
kts
19/11:30pm 26.8 32.2 25.4 92 1.0 SW 7 9 4 5 1008.5 1008.4 0.0
19/11:00pm 27.2 32.3 25.6 91 1.1 SW 9 13 5 7 1008.7 1008.6 0.0
19/10:30pm 27.4 32.4 25.4 89 1.4 SW 9 13 5 7 1008.8 1008.7 0.0
19/10:00pm 27.5 32.4 25.3 88 1.5 SW 9 13 5 7 1008.7 1008.6 0.0
19/09:30pm 27.9 32.5 25.3 86 1.8 WSW 11 15 6 8 1008.7 1008.6 0.0
19/09:00pm 28.1 32.9 25.1 84 2.1 WSW 9 11 5 6 1008.5 1008.4 0.0
19/08:30pm 28.6 33.1 25.2 82 2.4 WSW 11 15 6 8 1008.2 1008.1 0.0
19/08:00pm 28.9 33.3 25.1 80 2.7 WSW 11 15 6 8 1007.9 1007.8 0.0
19/07:30pm 29.2 33.4 25.4 80 2.7 WSW 13 17 7 9 1007.5 1007.4 0.0
19/07:00pm 29.8 33.7 24.9 75 3.4 W 13 20 7 11 1006.9 1006.8 0.0
19/06:30pm 30.7 34.4 24.6 70 4.3 W 13 22 7 12 1006.7 1006.6 0.0
19/06:00pm 32.2 34.6 23.7 61 5.9 W 17 22 9 12 1006.5 1006.4 0.0
19/05:30pm 33.0 35.0 23.0 55 6.9 WNW 17 26 9 14 1006.4 1006.3 0.0
19/05:00pm 33.9 35.6 22.3 50 8.0 WNW 17 26 9 14 1006.3 1006.2 0.0
19/04:30pm 34.6 36.3 22.3 48 8.4 WNW 17 20 9 11 1006.3 1006.2 0.0
19/04:00pm 35.3 36.7 21.9 45 9.2 WNW 17 24 9 13 1006.3 1006.2 0.0
19/03:30pm 36.4 37.6 20.6 39 10.7 NW 15 22 8 12 1006.2 1006.1 0.0
19/03:00pm 36.8 37.3 20.1 37 11.2 NW 17 28 9 15 1006.3 1006.2 0.0
19/02:30pm 36.7 37.3 18.7 34 11.9 NW 13 22 7 12 1006.6 1006.5 0.0
19/02:00pm 39.6 38.5 13.2 21 16.3 NE 11 19 6 10 1006.8 1006.7 0.0
19/01:30pm 39.9 39.2 15.5 24 15.5 ENE 13 20 7 11 1007.0 1006.9 0.0
19/01:00pm 39.6 38.6 14.6 23 15.7 ENE 13 20 7 11 1007.4 1007.3 0.0
19/12:30pm 38.9 37.7 14.0 23 15.5 ENE 13 20 7 11 1007.8 1007.7 0.0
19/12:00pm 38.2 36.6 12.7 21 15.6 ENE 13 20 7 11 1008.4 1008.3 0.0
19/11:30am 38.2 36.9 14.7 24 14.7 ENE 15 22 8 12 1008.9 1008.8 0.0
19/11:00am 37.9 36.1 13.2 23 15.2 E 15 26 8 14 1009.3 1009.2 0.0
19/10:30am 37.3 35.5 13.3 23 14.7 E 15 26 8 14 1009.6 1009.5 0.0
19/10:00am 36.6 36.2 16.2 29 13.0 ESE 13 22 7 12 1009.9 1009.8 0.0
19/09:30am 35.1 34.6 15.9 31 12.1 SE 13 24 7 13 1010.4 1010.3 0.0
19/09:00am 33.8 35.9 20.9 46 8.7 SSE 11 19 6 10 1010.6 1010.5 0.0
19/08:30am 32.3 34.5 20.5 49 7.9 SSE 9 20 5 11 1010.8 1010.7 0.0
19/08:00am 30.7 34.0 25.1 72 3.9 SW 17 22 9 12 1010.9 1010.8 0.0
19/07:30am 29.1 32.5 25.3 80 2.7 SW 17 26 9 14 1010.8 1010.7 0.0
19/07:00am 28.0 32.0 25.6 87 1.7 SW 15 17 8 9 1010.9 1010.8 0.0
19/06:30am 27.0 32.0 25.4 91 1.1 WSW 9 15 5 8 1010.7 1010.6 0.0
19/06:00am 26.7 30.7 25.1 91 1.1 SW 13 17 7 9 1010.4 1010.3 0.0
19/05:30am 26.8 30.8 25.0 90 1.3 WSW 13 20 7 11 1010.3 1010.2 0.0
19/05:00am 26.9 31.1 25.3 91 1.1 SW 13 17 7 9 1010.3 1010.2 0.0
19/04:30am 26.7 31.3 25.3 92 1.0 WSW 11 15 6 8 1010.2 1010.1 0.0
19/04:00am 26.6 31.5 25.2 92 1.0 SW 9 13 5 7 1009.9 1009.8 0.0
19/03:30am 26.7 31.6 25.3 92 1.0 WSW 9 13 5 7 1009.4 1009.3 0.0
19/03:00am 26.7 31.6 25.3 92 1.0 WSW 9 13 5 7 1009.1 1009.0 0.0
19/02:30am 26.7 31.5 25.1 91 1.1 WSW 9 13 5 7 1009.1 1009.0 0.0
19/02:00am 26.8 31.7 25.2 91 1.1 WSW 9 13 5 7 1009.0 1008.9 0.0
19/01:30am 26.9 31.3 25.1 90 1.3 WSW 11 15 6 8 1009.0 1008.9 0.0
19/01:00am 27.0 31.5 25.2 90 1.3 WSW 11 17 6 9 1009.2 1009.1 0.0
19/12:30am 27.3 32.2 25.3 89 1.4 WSW 9 13 5 7 1009.4 1009.3 0.0
19/12:00am 27.5 32.4 25.3 88 1.5 W 9 13 5 7 1009.6 1009.5 0.0
 
Date/Time
WST
Temp
°C
App
Temp
°C
Dew
Point
°C
Rel
Hum
%
Delta-T
°C
Wind Press
QNH
hPa
Press
MSL
hPa
Rain since
9am
mm
Dir  Spd
km/h
Gust
km/h
Spd
kts
Gust
kts
18/11:30pm 27.8 32.7 25.2 86 1.8 W 9 13 5 7 1009.9 1009.8 0.0
18/11:00pm 28.1 32.7 25.3 85 2.0 W 11 15 6 8 1010.2 1010.1 0.0
18/10:30pm 28.1 32.1 25.1 84 2.1 WSW 13 17 7 9 1010.3 1010.2 0.0
18/10:00pm 28.2 32.7 25.2 84 2.1 WSW 11 17 6 9 1010.2 1010.1 0.0
18/09:30pm 28.1 32.8 25.5 86 1.8 W 11 15 6 8 1010.2 1010.1 0.0
18/09:00pm 28.0 33.0 25.4 86 1.8 WNW 9 11 5 6 1009.8 1009.7 0.0
18/08:30pm 28.3 34.2 25.3 84 2.1 SSE 4 7 2 4 1010.2 1010.1 0.0
18/08:00pm 28.4 33.1 25.0 82 2.4 SSE 9 15 5 8 1010.6 1010.5 0.0
18/07:30pm 28.5 33.3 25.1 82 2.4 W 9 11 5 6 1009.8 1009.7 0.0
18/07:00pm 28.8 33.2 25.0 80 2.7 WNW 11 13 6 7 1009.4 1009.3 0.0
18/06:30pm 29.2 33.0 24.7 77 3.1 WNW 13 17 7 9 1009.2 1009.1 0.0
18/06:00pm 29.8 33.6 24.7 74 3.6 WNW 13 17 7 9 1009.1 1009.0 0.0
18/05:30pm 30.8 34.2 24.7 70 4.3 WNW 15 22 8 12 1009.1 1009.0 0.0
18/05:00pm 31.2 34.7 24.8 69 4.5 NW 15 24 8 13 1009.0 1008.9 0.0
18/04:30pm 31.7 34.4 24.8 67 4.9 NW 19 28 10 15 1008.6 1008.5 0.0
18/04:00pm 32.2 34.7 24.5 64 5.4 NW 19 26 10 14 1008.5 1008.4 0.0
18/03:30pm 32.3 34.7 24.3 62 5.6 NW 19 28 10 15 1008.9 1008.8 0.0
18/03:00pm 32.4 34.6 24.2 62 5.7 NW 20 28 11 15 1009.2 1009.1 0.0
18/02:30pm 32.9 35.4 24.4 61 6.0 NW 19 28 10 15 1009.5 1009.4 0.0
18/02:00pm 33.1 35.7 24.6 61 6.0 NW 19 28 10 15 1009.9 1009.8 0.0
18/01:30pm 32.7 35.1 24.2 61 5.9 NW 19 28 10 15 1010.3 1010.2 0.0
18/01:00pm 33.0 35.7 24.7 61 5.9 NNW 19 28 10 15 1010.5 1010.4 0.0
18/12:30pm 32.4 35.5 24.2 62 5.7 NNW 15 24 8 13 1010.8 1010.7 0.0
18/12:00pm 33.1 36.6 24.8 61 5.9 NW 15 22 8 12 1011.1 1011.0 0.0
18/11:30am 32.8 36.5 24.6 62 5.8 NNW 13 20 7 11 1011.4 1011.3 0.0
18/11:00am 32.6 36.5 24.9 64 5.4 N 13 19 7 10 1011.8 1011.7 0.0
18/10:30am 32.6 36.9 24.9 64 5.4 NNW 11 17 6 9 1012.0 1011.9 0.0
18/10:00am 32.3 36.3 23.8 61 5.9 N 9 15 5 8 1012.3 1012.2 0.0
18/09:30am 31.2 35.4 24.1 66 4.9 N 9 15 5 8 1012.5 1012.4 0.0
18/09:00am 31.1 36.9 24.5 68 4.6 ENE 2 9 1 5 1012.4 1012.3 0.0
18/08:30am 29.8 35.8 24.9 75 3.4 NNE 2 7 1 4 1012.2 1012.1 0.0
18/08:00am 29.0 35.3 25.4 81 2.5 N 2 7 1 4 1012.2 1012.1 0.0
18/07:30am 28.0 34.7 25.4 86 1.8 CALM 0 6 0 3 1011.8 1011.7 0.0
18/07:00am 26.8 32.6 25.8 94 0.7 ESE 6 9 3 5 1011.4 1011.3 0.0
18/06:30am 26.1 31.5 25.1 94 0.7 E 6 7 3 4 1011.2 1011.1 0.0
18/06:00am 26.0 32.1 25.0 94 0.7 E 2 6 1 3 1010.7 1010.6 0.0
18/05:30am 26.2 32.0 25.2 94 0.7 ESE 4 6 2 3 1010.5 1010.4 0.0
18/05:00am 26.3 32.2 25.3 94 0.7 SE 4 7 2 4 1010.3 1010.2 0.0
18/04:30am 26.2 31.5 25.0 93 0.8 SE 6 7 3 4 1010.1 1010.0 0.0
18/04:00am 26.2 31.5 25.0 93 0.8 ESE 6 7 3 4 1010.1 1010.0 0.0
18/03:30am 26.1 31.4 24.9 93 0.8 SSE 6 7 3 4 1009.9 1009.8 0.0
18/03:00am 26.1 31.2 24.7 92 1.0 NW 6 7 3 4 1009.5 1009.4 0.0
18/02:30am 26.1 31.0 24.7 92 1.0 NNW 7 9 4 5 1009.3 1009.2 0.0
18/02:00am 26.4 31.6 24.8 91 1.1 N 6 7 3 4 1009.5 1009.4 0.0
18/01:30am 26.6 31.7 25.0 91 1.1 N 7 9 4 5 1009.7 1009.6 0.0
18/01:00am 26.9 33.0 25.1 90 1.3 N 2 7 1 4 1010.1 1010.0 0.0
18/12:30am 27.0 32.0 25.4 91 1.1 N 9 11 5 6 1010.2 1010.1 0.0
18/12:00am 27.0 32.3 25.2 90 1.3 NNE 7 9 4 5 1010.3 1010.2 0.0

Other Formats:

Comma delimited format used in spreadsheet applications
http://www.bom.gov.au/fwo/IDW60801/IDW60801.94200.axf

JavaScript Object Notation format (JSON) in row-major order
http://www.bom.gov.au/fwo/IDW60801/IDW60801.94200.json